Time;durP1;ratioP1;P1;durP2;ratioP2;P2;SDS_P1;SDS_P2;PMS_P1;PMS_P2;Temp;Humidity;BMP_temperature;BMP_pressure;BME280_temperature;BME280_humidity;BME280_pressure;Samples;Min_cycle;Max_cycle;Signal;HPM_P1;HPM_P2
2022/08/02 00:01:53;;;;;;;1.85;0.80;;;22.90;57.10;;;;;;10537064;28;20036;-47
2022/08/02 00:06:54;;;;;;;1.10;0.82;;;22.90;57.00;;;;;;10537054;28;20036;-47
2022/08/02 00:11:55;;;;;;;1.38;1.15;;;22.90;56.80;;;;;;10536978;28;20744;-47
2022/08/02 00:16:55;;;;;;;2.35;1.25;;;22.90;56.90;;;;;;10536917;28;20024;-49
2022/08/02 00:21:56;;;;;;;2.20;1.02;;;22.90;57.00;;;;;;10536095;28;20391;-47
2022/08/02 00:26:57;;;;;;;2.15;1.10;;;22.80;57.00;;;;;;10518085;28;20386;-47
2022/08/02 00:31:58;;;;;;;0.90;0.80;;;22.90;57.00;;;;;;10535974;28;20032;-50
2022/08/02 00:36:59;;;;;;;5.07;1.50;;;22.80;56.80;;;;;;10535568;28;20032;-49
2022/08/02 00:42:00;;;;;;;2.33;0.98;;;22.90;56.90;;;;;;10535429;28;20559;-49
2022/08/02 00:47:00;;;;;;;2.45;0.90;;;22.80;56.90;;;;;;10535231;28;20093;-48
2022/08/02 00:52:01;;;;;;;2.60;1.35;;;22.80;56.90;;;;;;10534967;28;20032;-47
2022/08/02 00:57:02;;;;;;;1.38;0.80;;;22.80;56.80;;;;;;10535035;28;20387;-48
2022/08/02 01:02:03;;;;;;;1.88;0.98;;;22.80;56.80;;;;;;10535234;28;20028;-47
2022/08/02 01:07:04;;;;;;;1.42;1.15;;;22.80;56.80;;;;;;10534362;28;20047;-47
2022/08/02 01:12:05;;;;;;;1.75;1.20;;;22.80;56.80;;;;;;10534513;28;20482;-47
2022/08/02 01:17:46;;;;;;;1.27;0.90;;;22.80;56.90;;;;;;10534279;28;20043;-46
2022/08/02 01:23:27;;;;;;;2.00;1.02;;;22.80;56.80;;;;;;10488243;28;20119;-47
2022/08/02 01:28:36;;;;;;;1.33;0.80;;;22.80;56.60;;;;;;10533352;28;20031;-46
2022/08/02 01:33:58;;;;;;;1.67;0.90;;;22.70;56.70;;;;;;10519421;28;20024;-49
2022/08/02 01:39:02;;;;;;;1.48;0.90;;;22.70;56.70;;;;;;10514843;28;20391;-47
2022/08/02 01:44:05;;;;;;;1.05;0.63;;;22.70;56.70;;;;;;10515708;28;20081;-47
2022/08/02 01:49:13;;;;;;;1.27;0.80;;;22.70;56.70;;;;;;10515039;28;20024;-49
2022/08/02 01:54:17;;;;;;;1.40;0.77;;;22.70;56.70;;;;;;10532443;28;20123;-48
2022/08/02 01:59:21;;;;;;;2.08;1.00;;;22.70;56.70;;;;;;10514425;28;20548;-49
2022/08/02 02:04:24;;;;;;;1.15;0.80;;;22.70;56.70;;;;;;10514791;28;20044;-48
2022/08/02 02:09:29;;;;;;;1.17;0.73;;;22.70;56.80;;;;;;10497791;28;20028;-47
2022/08/02 02:14:31;;;;;;;1.50;0.90;;;22.70;57.40;;;;;;10514476;28;20028;-48
2022/08/02 02:19:35;;;;;;;1.33;0.80;;;22.70;56.70;;;;;;10514496;28;20032;-48
2022/08/02 02:24:36;;;;;;;1.98;1.10;;;22.60;56.60;;;;;;10531921;28;20105;-50
2022/08/02 02:29:42;;;;;;;1.65;0.80;;;22.70;56.70;;;;;;10532026;28;20085;-50
2022/08/02 02:34:45;;;;;;;1.42;0.90;;;22.60;56.60;;;;;;10497821;28;20566;-47
2022/08/02 02:39:50;;;;;;;1.33;1.13;;;22.60;56.70;;;;;;10513617;28;20525;-48
2022/08/02 02:44:52;;;;;;;1.90;1.20;;;22.60;56.60;;;;;;10514799;28;20048;-49
2022/08/02 02:49:55;;;;;;;3.47;1.17;;;22.60;56.80;;;;;;10521777;28;20028;-48
2022/08/02 02:54:57;;;;;;;0.73;0.70;;;22.60;56.70;;;;;;10521874;28;20028;-48
2022/08/02 02:59:58;;;;;;;1.02;0.77;;;22.60;56.60;;;;;;10521361;28;20093;-47
2022/08/02 03:05:01;;;;;;;1.08;0.70;;;22.60;56.70;;;;;;10521319;28;20038;-47
2022/08/02 03:10:05;;;;;;;2.75;1.30;;;22.60;56.80;;;;;;10539206;28;20031;-48
2022/08/02 03:15:08;;;;;;;0.90;0.65;;;22.60;56.70;;;;;;10538402;28;20056;-48
2022/08/02 03:20:12;;;;;;;1.40;0.95;;;22.50;56.70;;;;;;10520403;28;20030;-47
2022/08/02 03:25:15;;;;;;;0.93;0.70;;;22.50;56.60;;;;;;10538510;28;20136;-47
2022/08/02 03:30:16;;;;;;;1.70;0.95;;;22.50;56.70;;;;;;10538311;28;20036;-49
2022/08/02 03:35:19;;;;;;;1.90;1.05;;;22.50;56.70;;;;;;10538572;28;20028;-48
2022/08/02 03:40:21;;;;;;;1.83;1.35;;;22.50;56.80;;;;;;10519992;28;20048;-50
2022/08/02 03:45:24;;;;;;;1.38;0.90;;;22.50;56.70;;;;;;10520340;28;20116;-48
2022/08/02 03:50:26;;;;;;;1.00;0.80;;;22.50;56.70;;;;;;10520135;28;20115;-47
2022/08/02 03:55:27;;;;;;;1.17;0.82;;;22.40;56.80;;;;;;10518818;28;20058;-48
2022/08/02 04:00:28;;;;;;;1.10;0.80;;;22.50;56.80;;;;;;10535206;28;20115;-47
2022/08/02 04:05:28;;;;;;;2.33;0.85;;;22.50;56.90;;;;;;10535940;28;20436;-47
2022/08/02 04:10:29;;;;;;;1.42;0.90;;;22.40;57.00;;;;;;10535860;28;20038;-48
2022/08/02 04:15:30;;;;;;;3.20;0.80;;;22.40;56.90;;;;;;10536601;28;20077;-48
2022/08/02 04:20:34;;;;;;;1.20;0.90;;;22.40;57.10;;;;;;10500794;28;20047;-48
2022/08/02 04:25:36;;;;;;;2.13;1.42;;;22.40;57.10;;;;;;10534873;28;20027;-47
2022/08/02 04:30:38;;;;;;;2.78;0.80;;;22.40;57.30;;;;;;10515987;28;20088;-47
2022/08/02 04:35:39;;;;;;;2.15;1.00;;;22.40;57.20;;;;;;10533259;28;20032;-47
2022/08/02 04:40:48;;;;;;;1.33;1.05;;;22.40;57.30;;;;;;10516422;28;20052;-49
2022/08/02 04:45:52;;;;;;;1.60;0.85;;;22.40;57.40;;;;;;10535118;28;20054;-50
2022/08/02 04:50:52;;;;;;;3.53;1.33;;;22.40;57.60;;;;;;10497856;28;20069;-50
2022/08/02 04:55:53;;;;;;;2.83;1.13;;;22.40;58.00;;;;;;10531518;28;20035;-47
2022/08/02 05:00:54;;;;;;;3.95;1.27;;;22.40;58.40;;;;;;10516321;28;20067;-52
2022/08/02 05:05:55;;;;;;;2.00;0.73;;;22.50;59.00;;;;;;10534182;28;20035;-48
2022/08/02 05:10:55;;;;;;;3.90;1.42;;;22.60;59.50;;;;;;10525341;28;20162;-48
2022/08/02 05:16:00;;;;;;;9.80;2.10;;;22.60;59.30;;;;;;10513600;28;20050;-53
2022/08/02 05:21:00;;;;;;;7.22;1.63;;;22.60;59.00;;;;;;10532416;28;20024;-51
2022/08/02 05:26:01;;;;;;;6.70;1.42;;;22.50;59.10;;;;;;10533686;28;20031;-53
2022/08/02 05:31:02;;;;;;;6.55;1.80;;;22.60;59.40;;;;;;10513929;28;20103;-52
2022/08/02 05:36:03;;;;;;;13.35;2.85;;;22.50;59.20;;;;;;10532637;28;20133;-48
2022/08/02 05:41:05;;;;;;;8.90;1.73;;;22.50;59.20;;;;;;10497336;28;20048;-50
2022/08/02 05:46:06;;;;;;;8.45;1.90;;;22.50;59.10;;;;;;10515087;28;20039;-47
2022/08/02 05:51:13;;;;;;;10.90;2.72;;;22.50;59.40;;;;;;10532671;28;20067;-49
2022/08/02 05:56:37;;;;;;;14.30;3.22;;;22.50;59.20;;;;;;10532966;28;20433;-48
2022/08/02 06:01:41;;;;;;;7.57;2.00;;;22.50;59.30;;;;;;10514283;28;20042;-48
2022/08/02 06:06:43;;;;;;;11.63;2.85;;;22.50;59.40;;;;;;10514967;28;20024;-46
2022/08/02 06:11:50;;;;;;;5.78;1.75;;;22.40;59.50;;;;;;10532059;28;20378;-46
2022/08/02 06:16:52;;;;;;;11.05;2.47;;;22.40;59.50;;;;;;10532437;28;20435;-46
2022/08/02 06:21:53;;;;;;;13.90;2.25;;;22.40;59.50;;;;;;10536012;28;20032;-52
2022/08/02 06:26:56;;;;;;;12.93;2.83;;;22.40;59.50;;;;;;10521016;28;20024;-46
2022/08/02 06:31:57;;;;;;;8.85;2.75;;;22.40;59.60;;;;;;10538850;28;20044;-46
2022/08/02 06:37:46;;;;;;;8.70;2.40;;;22.40;59.60;;;;;;10522415;28;20100;-46
2022/08/02 06:42:50;;;;;;;4.97;2.00;;;22.40;59.40;;;;;;10525017;28;20542;-48
2022/08/02 06:47:52;;;;;;;10.45;2.50;;;22.40;59.50;;;;;;10539947;28;20097;-46
2022/08/02 06:52:53;;;;;;;12.57;3.22;;;22.40;59.80;;;;;;10539520;28;20031;-54
2022/08/02 06:57:53;;;;;;;7.55;2.40;;;22.40;60.10;;;;;;10538480;28;20032;-52
2022/08/02 07:02:54;;;;;;;10.30;2.47;;;22.40;60.20;;;;;;10538427;28;20031;-54
2022/08/02 07:07:56;;;;;;;34.65;4.35;;;22.40;60.20;;;;;;10537969;28;20024;-51
2022/08/02 07:12:56;;;;;;;14.82;2.60;;;22.40;60.00;;;;;;10517264;28;20486;-51
2022/08/02 07:17:57;;;;;;;12.80;3.13;;;22.40;60.10;;;;;;10537947;28;20047;-51
2022/08/02 07:22:58;;;;;;;13.70;3.80;;;22.40;60.30;;;;;;10509725;28;20046;-52
2022/08/02 07:27:58;;;;;;;11.32;3.17;;;22.40;60.30;;;;;;10529429;28;20379;-52
2022/08/02 07:32:59;;;;;;;9.88;2.60;;;22.40;60.80;;;;;;10533244;28;20106;-51
2022/08/02 07:38:00;;;;;;;6.80;2.15;;;22.50;60.60;;;;;;10537476;28;20040;-53
2022/08/02 07:43:01;;;;;;;5.03;2.65;;;22.50;61.00;;;;;;10537115;28;20039;-51
2022/08/02 07:48:01;;;;;;;5.22;2.90;;;22.50;61.00;;;;;;10535324;28;20413;-53
2022/08/02 07:53:02;;;;;;;6.93;2.60;;;22.50;60.80;;;;;;10519421;28;20020;-48
2022/08/02 07:58:04;;;;;;;8.10;3.33;;;22.40;60.60;;;;;;10518869;28;20063;-51
2022/08/02 08:03:05;;;;;;;8.95;3.63;;;22.50;61.40;;;;;;10518966;28;20134;-51
2022/08/02 08:08:05;;;;;;;6.85;3.50;;;22.50;60.90;;;;;;10536683;28;20035;-53
2022/08/02 08:13:06;;;;;;;6.35;3.42;;;22.50;60.90;;;;;;10516124;28;20061;-47
2022/08/02 08:18:07;;;;;;;6.50;3.00;;;22.50;60.90;;;;;;10517538;28;20032;-49
2022/08/02 08:23:08;;;;;;;5.93;3.33;;;22.50;60.90;;;;;;10522383;28;20497;-48
2022/08/02 08:28:08;;;;;;;7.50;2.97;;;22.50;61.00;;;;;;10534099;28;20024;-48
2022/08/02 08:33:09;;;;;;;5.30;2.92;;;22.50;61.00;;;;;;10533903;28;20033;-48
2022/08/02 08:38:10;;;;;;;7.85;2.80;;;22.60;61.20;;;;;;10516287;28;20044;-49
2022/08/02 08:43:14;;;;;;;7.35;2.90;;;22.60;61.20;;;;;;10533827;28;20032;-47
2022/08/02 08:48:17;;;;;;;7.18;2.80;;;22.50;61.20;;;;;;10516135;28;20024;-48
2022/08/02 08:53:20;;;;;;;6.07;2.47;;;22.60;61.30;;;;;;10533072;28;20024;-49
2022/08/02 08:58:21;;;;;;;6.97;2.30;;;22.50;61.30;;;;;;10514965;28;20028;-47
2022/08/02 09:03:22;;;;;;;4.95;2.75;;;22.50;61.30;;;;;;10533965;28;20483;-46
2022/08/02 09:08:24;;;;;;;4.43;2.92;;;22.50;61.40;;;;;;10534187;28;20024;-46
2022/08/02 09:13:28;;;;;;;11.73;3.55;;;22.60;61.40;;;;;;10534688;28;20093;-48
2022/08/02 09:18:36;;;;;;;3.40;1.92;;;22.60;61.50;;;;;;10533837;28;20032;-48
2022/08/02 09:23:42;;;;;;;3.78;2.40;;;22.50;61.40;;;;;;10515352;28;20069;-47
2022/08/02 09:28:46;;;;;;;4.82;2.17;;;22.60;61.50;;;;;;10533877;28;20028;-48
2022/08/02 09:33:53;;;;;;;4.53;2.55;;;22.60;61.60;;;;;;10533540;28;20051;-46
2022/08/02 09:39:02;;;;;;;3.53;2.40;;;22.60;61.60;;;;;;10533387;28;20086;-49
2022/08/02 09:44:05;;;;;;;6.68;1.90;;;22.60;61.50;;;;;;10533414;28;20032;-50
2022/08/02 09:49:18;;;;;;;4.13;2.22;;;22.60;61.50;;;;;;10515413;28;20163;-47
2022/08/02 09:54:28;;;;;;;4.22;2.42;;;22.60;61.60;;;;;;10532241;28;20043;-48
2022/08/02 09:59:30;;;;;;;4.32;1.95;;;22.60;61.60;;;;;;10515389;28;20035;-48
2022/08/02 10:04:31;;;;;;;3.22;2.15;;;22.60;61.60;;;;;;10533097;28;20043;-49
2022/08/02 10:09:33;;;;;;;4.20;1.98;;;22.60;61.60;;;;;;10514099;28;20034;-46
2022/08/02 10:14:34;;;;;;;3.58;2.33;;;22.70;61.70;;;;;;10513656;28;20407;-47
2022/08/02 10:19:35;;;;;;;3.42;1.88;;;22.70;61.60;;;;;;10531841;28;20036;-46
2022/08/02 10:24:38;;;;;;;4.40;2.45;;;22.70;61.60;;;;;;10531600;28;20093;-47
2022/08/02 10:29:41;;;;;;;4.68;2.33;;;22.70;61.60;;;;;;10530167;28;20097;-50
2022/08/02 10:34:54;;;;;;;3.60;2.00;;;22.70;61.60;;;;;;10513495;28;20169;-49
2022/08/02 10:39:56;;;;;;;5.40;2.47;;;22.70;61.70;;;;;;10488024;28;20047;-52
2022/08/02 10:45:16;;;;;;;4.97;2.67;;;22.70;61.90;;;;;;10488009;28;20025;-51
2022/08/02 10:50:17;;;;;;;3.75;2.22;;;22.70;62.10;;;;;;10490246;28;20063;-50
2022/08/02 10:55:18;;;;;;;3.55;2.08;;;22.70;62.20;;;;;;10489849;28;20020;-52
2022/08/02 11:00:21;;;;;;;4.38;2.65;;;22.70;62.10;;;;;;10489224;28;20017;-52
2022/08/02 11:05:33;;;;;;;3.55;2.00;;;22.80;62.10;;;;;;10489014;28;20376;-53
2022/08/02 11:10:38;;;;;;;4.78;2.38;;;22.80;62.10;;;;;;10495079;28;20059;-52
2022/08/02 11:15:54;;;;;;;2.67;1.83;;;22.80;62.20;;;;;;10494301;28;20090;-49
2022/08/02 11:21:27;;;;;;;3.47;1.95;;;22.80;62.20;;;;;;10496779;28;20024;-51
2022/08/02 11:26:28;;;;;;;5.55;2.45;;;22.80;62.20;;;;;;10490323;28;20125;-49
2022/08/02 11:31:39;;;;;;;7.55;3.17;;;22.80;62.20;;;;;;10494796;28;20142;-50
2022/08/02 11:36:50;;;;;;;3.80;1.73;;;22.80;62.30;;;;;;10493207;28;20032;-51
2022/08/02 11:41:57;;;;;;;3.75;2.22;;;22.80;62.20;;;;;;10494313;28;20071;-50
2022/08/02 11:47:01;;;;;;;4.47;1.65;;;22.80;62.20;;;;;;10495053;28;20059;-51
2022/08/02 11:52:06;;;;;;;2.78;1.80;;;22.80;62.20;;;;;;10496112;28;20032;-50
2022/08/02 11:57:18;;;;;;;2.97;1.90;;;22.80;62.20;;;;;;10494475;28;20028;-50
2022/08/02 12:02:24;;;;;;;3.47;2.00;;;22.90;62.30;;;;;;10494280;28;20071;-50
2022/08/02 12:07:32;;;;;;;5.20;1.80;;;22.90;62.20;;;;;;10494245;28;20032;-50
2022/08/02 12:12:45;;;;;;;3.42;2.00;;;22.90;62.10;;;;;;10495251;28;20375;-50
2022/08/02 12:23:06;;;;;;;2.78;1.60;;;22.90;62.20;;;;;;10495146;28;20071;-49
2022/08/02 12:28:21;;;;;;;2.92;1.63;;;22.90;62.10;;;;;;10494283;28;20020;-50
2022/08/02 12:33:23;;;;;;;4.13;1.95;;;22.90;62.00;;;;;;10493374;28;20066;-48
2022/08/02 12:38:24;;;;;;;2.65;1.67;;;22.90;62.00;;;;;;10507290;28;20059;-52
2022/08/02 12:43:25;;;;;;;3.70;1.50;;;22.90;61.90;;;;;;10535766;28;20031;-50
2022/08/02 12:48:39;;;;;;;2.80;2.05;;;23.00;61.90;;;;;;10535218;28;20119;-52
2022/08/02 12:53:39;;;;;;;3.08;1.92;;;23.00;61.90;;;;;;10535374;28;20043;-50
2022/08/02 12:58:51;;;;;;;3.17;1.83;;;23.00;61.90;;;;;;10534607;28;20044;-51
2022/08/02 13:03:54;;;;;;;3.45;1.90;;;23.00;61.90;;;;;;10534814;28;20040;-52
2022/08/02 13:08:55;;;;;;;2.53;2.00;;;23.00;61.80;;;;;;10534136;28;20028;-48
2022/08/02 13:13:56;;;;;;;3.10;1.65;;;23.00;61.50;;;;;;10514860;28;20545;-51
2022/08/02 13:18:58;;;;;;;4.30;1.50;;;23.00;61.50;;;;;;10533740;28;20035;-52
2022/08/02 13:23:58;;;;;;;3.08;1.90;;;23.10;61.20;;;;;;10513948;28;20708;-50
2022/08/02 13:28:59;;;;;;;3.50;1.80;;;23.10;61.00;;;;;;10532259;28;20027;-49
2022/08/02 13:34:00;;;;;;;2.35;1.60;;;23.00;60.80;;;;;;10533267;28;20039;-48
2022/08/02 13:39:04;;;;;;;3.00;1.50;;;23.10;60.70;;;;;;10533488;28;20112;-48
2022/08/02 13:44:05;;;;;;;3.45;2.00;;;23.10;60.50;;;;;;10515496;28;20123;-46
2022/08/02 13:49:05;;;;;;;2.75;1.95;;;23.10;60.00;;;;;;10515390;28;20035;-51
2022/08/02 13:54:06;;;;;;;2.55;1.65;;;23.10;59.80;;;;;;10514847;28;20028;-52
2022/08/02 13:59:07;;;;;;;3.67;1.52;;;23.10;60.10;;;;;;10532846;28;20511;-50
2022/08/02 14:04:07;;;;;;;6.55;3.92;;;23.20;58.00;;;;;;10514556;28;20036;-51
2022/08/02 14:09:08;;;;;;;5.55;3.92;;;23.40;59.40;;;;;;10531850;28;20150;-48
2022/08/02 14:14:09;;;;;;;6.38;3.97;;;23.30;58.60;;;;;;10531947;28;20035;-51
2022/08/02 14:19:10;;;;;;;5.13;3.10;;;23.40;60.00;;;;;;10512946;28;20036;-52
2022/08/02 14:24:11;;;;;;;3.47;2.10;;;23.40;62.00;;;;;;10529309;28;20063;-51
2022/08/02 14:29:15;;;;;;;3.08;2.03;;;23.30;58.10;;;;;;10523254;28;20029;-49
2022/08/02 14:34:15;;;;;;;3.75;2.55;;;23.40;56.70;;;;;;10531265;28;20113;-48
2022/08/02 14:39:17;;;;;;;2.90;1.60;;;23.30;58.10;;;;;;10531413;28;20076;-50
2022/08/02 14:44:17;;;;;;;5.53;1.77;;;23.40;56.30;;;;;;10536115;28;20497;-48
2022/08/02 14:49:19;;;;;;;4.07;1.40;;;23.30;57.40;;;;;;10538608;28;20115;-47
2022/08/02 14:54:20;;;;;;;5.35;1.50;;;23.40;57.80;;;;;;10538602;28;20031;-51
2022/08/02 14:59:20;;;;;;;4.35;1.80;;;23.40;57.90;;;;;;10537668;28;20030;-47
2022/08/02 15:04:21;;;;;;;2.55;1.52;;;23.40;57.30;;;;;;10538319;28;20039;-48
2022/08/02 15:09:22;;;;;;;3.17;1.33;;;23.30;58.80;;;;;;10538206;28;20073;-54
2022/08/02 15:14:23;;;;;;;7.43;1.73;;;23.10;59.20;;;;;;10537758;28;20043;-47
2022/08/02 15:19:24;;;;;;;5.38;2.22;;;23.10;59.80;;;;;;10538750;28;20026;-48
2022/08/02 15:24:25;;;;;;;5.13;1.80;;;23.10;59.80;;;;;;10520385;28;20032;-48
2022/08/02 15:29:26;;;;;;;5.30;1.85;;;23.20;59.70;;;;;;10538659;28;20040;-46
2022/08/02 15:34:26;;;;;;;6.50;2.20;;;23.40;59.50;;;;;;10538633;28;20582;-48
2022/08/02 15:39:27;;;;;;;5.35;2.28;;;23.50;59.20;;;;;;10538320;28;20135;-48
2022/08/02 15:44:28;;;;;;;4.53;1.85;;;23.60;59.60;;;;;;10538251;28;20348;-49
2022/08/02 15:49:29;;;;;;;7.70;2.13;;;23.90;57.50;;;;;;10519837;28;20032;-50
2022/08/02 15:54:29;;;;;;;4.78;2.40;;;23.90;57.90;;;;;;10536717;28;20028;-49
2022/08/02 15:59:30;;;;;;;6.57;2.63;;;24.00;58.50;;;;;;10519262;28;20103;-48
2022/08/02 16:04:31;;;;;;;6.57;2.72;;;24.20;60.00;;;;;;10518028;28;20036;-48
2022/08/02 16:09:32;;;;;;;7.13;2.35;;;24.20;58.20;;;;;;10536192;28;20032;-48
2022/08/02 16:14:33;;;;;;;5.93;2.45;;;24.10;58.00;;;;;;10536190;28;20032;-47
2022/08/02 16:19:34;;;;;;;9.65;3.72;;;24.00;58.50;;;;;;10517394;28;20047;-49
2022/08/02 16:24:34;;;;;;;6.43;2.20;;;23.90;58.60;;;;;;10535610;28;20395;-48
2022/08/02 16:29:36;;;;;;;3.88;2.03;;;23.90;58.70;;;;;;10514632;28;20198;-50
2022/08/02 16:34:37;;;;;;;5.22;1.90;;;23.80;58.70;;;;;;10535740;28;20475;-50
2022/08/02 16:39:38;;;;;;;4.45;1.80;;;23.80;59.00;;;;;;10534980;28;20071;-48
2022/08/02 16:44:39;;;;;;;6.93;1.88;;;23.80;59.20;;;;;;10516926;28;20130;-48
2022/08/02 16:49:40;;;;;;;3.63;1.75;;;23.80;59.10;;;;;;10534960;28;20519;-50
2022/08/02 16:54:40;;;;;;;3.50;1.83;;;23.90;59.20;;;;;;10534197;28;20523;-52
2022/08/02 16:59:41;;;;;;;4.85;2.15;;;23.80;59.50;;;;;;10516038;28;20448;-51
2022/08/02 17:04:42;;;;;;;4.47;1.95;;;23.60;60.00;;;;;;10532662;28;20399;-50
2022/08/02 17:09:42;;;;;;;4.28;1.85;;;23.60;60.30;;;;;;10534372;28;20530;-51
2022/08/02 17:14:45;;;;;;;4.55;1.80;;;23.50;61.10;;;;;;10533656;28;20032;-52
2022/08/02 17:19:45;;;;;;;3.78;1.90;;;23.50;60.70;;;;;;10533736;28;20043;-51
2022/08/02 17:24:46;;;;;;;4.43;2.03;;;23.50;60.90;;;;;;10533289;28;20024;-51
2022/08/02 17:29:47;;;;;;;3.90;1.98;;;23.50;60.90;;;;;;10515665;28;20028;-51
2022/08/02 17:34:48;;;;;;;3.95;1.67;;;23.50;61.20;;;;;;10533795;28;20151;-51
2022/08/02 17:39:48;;;;;;;3.70;1.80;;;23.50;61.20;;;;;;10533091;28;20052;-51
2022/08/02 17:44:53;;;;;;;2.35;1.80;;;23.50;61.40;;;;;;10533605;28;20032;-52
2022/08/02 17:49:54;;;;;;;4.03;1.70;;;23.40;61.50;;;;;;10515526;28;20483;-47
2022/08/02 17:54:55;;;;;;;7.10;2.33;;;23.50;61.60;;;;;;10533142;28;20764;-47
2022/08/02 17:59:59;;;;;;;3.83;2.13;;;23.50;62.20;;;;;;10533004;28;20028;-50
2022/08/02 18:05:00;;;;;;;7.03;1.83;;;23.60;63.00;;;;;;10511192;28;20459;-51
2022/08/02 18:10:03;;;;;;;5.18;1.90;;;23.60;63.20;;;;;;10532269;28;20012;-51
2022/08/02 18:15:05;;;;;;;6.40;2.72;;;23.60;63.30;;;;;;10512951;28;20115;-50
2022/08/02 18:20:06;;;;;;;4.22;1.92;;;23.70;63.60;;;;;;10532374;28;20509;-51
2022/08/02 18:25:07;;;;;;;4.20;2.25;;;23.70;63.70;;;;;;10532298;28;20036;-50
2022/08/02 18:30:09;;;;;;;5.90;2.10;;;23.70;64.10;;;;;;10506231;28;20025;-51
2022/08/02 18:35:10;;;;;;;4.53;2.10;;;23.70;64.20;;;;;;10513962;28;20066;-51
2022/08/02 18:40:11;;;;;;;4.72;1.70;;;23.60;64.40;;;;;;10513482;28;20571;-49
2022/08/02 18:45:11;;;;;;;3.88;2.10;;;23.60;64.40;;;;;;10512909;28;20131;-49
2022/08/02 18:50:12;;;;;;;4.78;2.00;;;23.70;63.90;;;;;;10529895;28;20320;-47
2022/08/02 18:55:13;;;;;;;8.68;3.25;;;23.90;64.10;;;;;;10529376;28;20028;-50
2022/08/02 19:00:14;;;;;;;3.60;1.73;;;24.00;63.70;;;;;;10512543;28;20356;-47
2022/08/02 19:05:15;;;;;;;3.28;2.40;;;24.00;63.50;;;;;;10531115;28;20043;-47
2022/08/02 19:10:16;;;;;;;3.97;2.30;;;23.80;64.20;;;;;;10530162;28;20383;-50
2022/08/02 19:15:17;;;;;;;8.52;2.47;;;23.80;64.50;;;;;;10529902;28;20104;-48
2022/08/02 19:20:17;;;;;;;3.17;1.90;;;23.70;64.30;;;;;;10530261;28;20448;-50
2022/08/02 19:25:18;;;;;;;4.07;2.35;;;23.60;64.30;;;;;;10530461;28;20021;-49
2022/08/02 19:30:19;;;;;;;4.47;1.95;;;23.70;64.50;;;;;;10536405;28;20024;-48
2022/08/02 19:35:20;;;;;;;3.95;2.05;;;23.60;65.00;;;;;;10538007;28;20077;-50
2022/08/02 19:40:26;;;;;;;5.78;2.03;;;23.80;65.40;;;;;;10519107;28;20159;-48
2022/08/02 19:45:27;;;;;;;3.95;1.73;;;23.70;65.10;;;;;;10536383;28;20107;-48
2022/08/02 19:50:27;;;;;;;5.07;2.35;;;23.70;65.00;;;;;;10537176;28;20359;-48
2022/08/02 19:55:28;;;;;;;4.03;2.00;;;23.70;64.40;;;;;;10537154;28;20103;-51
2022/08/02 20:00:29;;;;;;;3.22;1.67;;;23.60;64.50;;;;;;10535528;28;20043;-48
2022/08/02 20:05:30;;;;;;;2.60;1.70;;;23.60;64.60;;;;;;10516482;28;20085;-51
2022/08/02 20:10:32;;;;;;;4.07;1.95;;;23.70;64.50;;;;;;10535985;28;20027;-50
2022/08/02 20:15:33;;;;;;;2.13;1.60;;;23.60;64.40;;;;;;10516871;28;20107;-47
2022/08/02 20:20:37;;;;;;;2.17;1.50;;;23.70;64.20;;;;;;10533892;28;20030;-51
2022/08/02 20:25:38;;;;;;;3.88;1.70;;;23.60;64.10;;;;;;10516418;28;20042;-50
2022/08/02 20:30:39;;;;;;;3.47;1.90;;;23.60;64.00;;;;;;10521649;28;20024;-46
2022/08/02 20:35:40;;;;;;;3.35;1.83;;;23.60;63.90;;;;;;10496039;28;20024;-49
2022/08/02 20:40:42;;;;;;;4.90;1.58;;;23.60;64.00;;;;;;10534681;28;20123;-48
2022/08/02 20:45:42;;;;;;;3.40;1.73;;;23.70;63.90;;;;;;10535521;28;20036;-48
2022/08/02 20:50:53;;;;;;;3.83;1.73;;;23.60;63.90;;;;;;10535904;28;20429;-50
2022/08/02 20:55:54;;;;;;;2.80;1.95;;;23.60;63.90;;;;;;10535685;28;20024;-47
2022/08/02 21:00:58;;;;;;;4.88;1.70;;;23.60;63.90;;;;;;10516002;28;20028;-47
2022/08/02 21:05:59;;;;;;;2.28;1.60;;;23.60;63.80;;;;;;10534849;28;20102;-47
2022/08/02 21:11:00;;;;;;;2.72;1.52;;;23.60;63.90;;;;;;10534400;28;20061;-50
2022/08/02 21:16:00;;;;;;;4.22;2.10;;;23.60;63.90;;;;;;10516194;28;20062;-48
2022/08/02 21:21:01;;;;;;;4.38;1.65;;;23.60;63.90;;;;;;10515889;28;20131;-50
2022/08/02 21:26:03;;;;;;;3.47;1.42;;;23.60;63.80;;;;;;10533815;28;20040;-49
2022/08/02 21:31:04;;;;;;;3.10;1.67;;;23.60;63.90;;;;;;10533735;28;20085;-50
2022/08/02 21:36:04;;;;;;;3.35;1.67;;;23.60;63.80;;;;;;10533740;28;20490;-46
2022/08/02 21:41:05;;;;;;;4.30;1.83;;;23.60;63.80;;;;;;10533356;28;20525;-46
2022/08/02 21:46:06;;;;;;;4.00;1.67;;;23.60;64.20;;;;;;10533270;28;20673;-49
2022/08/02 21:51:07;;;;;;;2.30;1.65;;;23.60;64.10;;;;;;10533494;28;20031;-48
2022/08/02 21:56:07;;;;;;;5.00;2.03;;;23.60;64.20;;;;;;10533148;28;20119;-48
2022/08/02 22:01:08;;;;;;;4.00;1.85;;;23.60;64.50;;;;;;10498164;28;20028;-49
2022/08/02 22:06:09;;;;;;;4.00;1.83;;;23.60;64.20;;;;;;10532821;28;20115;-48
2022/08/02 22:11:09;;;;;;;2.38;1.60;;;23.60;64.10;;;;;;10532708;28;20506;-47
2022/08/02 22:16:10;;;;;;;2.70;1.77;;;23.60;64.10;;;;;;10514400;28;20576;-47
2022/08/02 22:21:11;;;;;;;2.10;1.80;;;23.60;64.00;;;;;;10532291;28;20032;-51
2022/08/02 22:26:12;;;;;;;5.85;1.92;;;23.60;64.10;;;;;;10532522;28;20533;-48
2022/08/02 22:31:12;;;;;;;1.83;1.38;;;23.60;63.90;;;;;;10503832;28;20024;-50
2022/08/02 22:36:17;;;;;;;2.90;1.73;;;23.50;63.80;;;;;;10514255;28;20127;-48
2022/08/02 22:41:21;;;;;;;2.97;1.45;;;23.50;63.80;;;;;;10532220;28;20040;-49
2022/08/02 22:46:21;;;;;;;2.90;1.63;;;23.50;64.40;;;;;;10532366;28;20092;-47
2022/08/02 22:51:23;;;;;;;2.50;1.50;;;23.60;63.70;;;;;;10513866;28;20038;-51
2022/08/02 22:56:24;;;;;;;2.30;1.50;;;23.60;63.70;;;;;;10532235;28;20055;-48
2022/08/02 23:01:25;;;;;;;2.28;1.50;;;23.60;63.70;;;;;;10513636;28;20122;-47
2022/08/02 23:06:25;;;;;;;2.85;1.58;;;23.50;63.70;;;;;;10504897;28;20159;-47
2022/08/02 23:11:26;;;;;;;1.75;1.13;;;23.50;63.70;;;;;;10521272;28;20032;-48
2022/08/02 23:21:46;;;;;;;2.55;1.40;;;23.50;63.70;;;;;;10539832;28;20044;-47
2022/08/02 23:26:47;;;;;;;4.93;1.40;;;23.50;63.70;;;;;;10539170;28;20016;-49
2022/08/02 23:31:48;;;;;;;2.92;1.65;;;23.50;63.70;;;;;;10538988;28;20028;-49
2022/08/02 23:36:48;;;;;;;3.22;1.60;;;23.50;63.70;;;;;;10538799;28;20024;-49
2022/08/02 23:41:49;;;;;;;2.63;1.42;;;23.50;63.70;;;;;;10538069;28;20036;-48
2022/08/02 23:46:50;;;;;;;2.10;1.48;;;23.50;63.70;;;;;;10537914;28;20117;-49
2022/08/02 23:51:52;;;;;;;1.80;1.08;;;23.50;63.70;;;;;;10537584;28;20040;-49
2022/08/02 23:56:53;;;;;;;2.13;1.52;;;23.50;63.80;;;;;;10537806;28;20028;-52
